This is the latest recevied weather packets stored in our database for station/object DG9MHV-10. If no packets are shown the sender has not sent any weather packets the latest 10 day(s).
| Time | Temp. | Humidity | Pressure | Rain* | Wind** | Luminosity | Snow |
|---|---|---|---|---|---|---|---|
| 1777833666 | 18.89° C | 100% | 1012.9 hPa | - | - | - | - |
| 1777832766 | 19.44° C | 100% | 1012.9 hPa | - | - | - | - |
| 1777831866 | 20° C | 100% | 1012.7 hPa | - | - | - | - |
| 1777830966 | 20.56° C | 100% | 1012.6 hPa | - | - | - | - |
| 1777830066 | 21.11° C | 100% | 1012.7 hPa | - | - | - | - |
| 1777829165 | 21.67° C | 100% | 1012.7 hPa | - | - | - | - |
| 1777828265 | 22.78° C | 90% | 1012.7 hPa | - | - | - | - |
| 1777827365 | 23.89° C | 75% | 1012.7 hPa | - | - | - | - |
| 1777826465 | 25° C | 67% | 1012.7 hPa | - | - | - | - |
| 1777825565 | 25.56° C | 72% | 1012.6 hPa | - | - | - | - |
| 1777823773 | 25° C | 75% | 1012.7 hPa | - | - | - | - |
| 1777822873 | 25° C | 82% | 1012.9 hPa | - | - | - | - |
| 1777821973 | 25.56° C | 82% | 1012.9 hPa | - | - | - | - |
| 1777821073 | 26.11° C | 73% | 1012.8 hPa | - | - | - | - |
| 1777820172 | 26.11° C | 75% | 1012.9 hPa | - | - | - | - |
| 1777819272 | 26.11° C | 73% | 1013 hPa | - | - | - | - |
| 1777818372 | 26.67° C | 72% | 1013.2 hPa | - | - | - | - |
| 1777817472 | 26.67° C | 75% | 1013.2 hPa | - | - | - | - |
| 1777816572 | 27.22° C | 73% | 1013.2 hPa | - | - | - | - |
| 1777815672 | 27.78° C | 60% | 1013.3 hPa | - | - | - | - |
| 1777814772 | 27.78° C | 60% | 1013.4 hPa | - | - | - | - |
| 1777813872 | 27.22° C | 62% | 1013.5 hPa | - | - | - | - |
| 1777812972 | 27.78° C | 69% | 1013.6 hPa | - | - | - | - |
| 1777812072 | 27.22° C | 79% | 1013.7 hPa | - | - | - | - |
| 1777811172 | 27.22° C | 72% | 1013.9 hPa | - | - | - | - |
* Rain since midnight (hover to see other rain measurements)
** Current wind speed in m/s (hover to see current wind gust speed)